Terminal Aerodrome Forecast
Issued by NWS Charleston, WV

Current Version | Previous Version | Text Only | Print | Product List | Glossary Off
Versions: 1 2 3 4 5 6 7 8 9 10 11 12 13 14 15 16 17 18 19 20 21 22 23 24 25 26 27

715
FTUS41 KRLX 271120
TAFHTS
TAF
KHTS 271120Z 2712/2812 18009KT P6SM BKN140
     FM271500 20009G17KT P6SM VCTS OVC040CB
      TEMPO 2716/2720 4SM SHRA OVC025
     FM272100 24010KT P6SM BKN035
     FM280500 00000KT P6SM SCT250
     FM280800 00000KT 5SM BR SCT200=

USA.gov is the U.S. government's official web portal to all federal, state and local government web resources and services.